Time;durP1;ratioP1;P1;durP2;ratioP2;P2;SDS_P1;SDS_P2;PMS_P1;PMS_P2;Temp;Humidity;BMP_temperature;BMP_pressure;BME280_temperature;BME280_humidity;BME280_pressure;Samples;Min_cycle;Max_cycle;Signal;HPM_P1;HPM_P2
2021/01/29 00:00:26;;;;;;;266.63;164.52;;;204.80;1664.00;;;;;;4976827;28;20457;-71
2021/01/29 00:02:53;;;;;;;247.65;154.45;;;204.80;1664.00;;;;;;4976766;28;20030;-72
2021/01/29 00:05:24;;;;;;;254.55;156.25;;;204.80;1664.00;;;;;;4976937;28;20038;-72
2021/01/29 00:07:50;;;;;;;291.60;179.85;;;180.00;1689.60;;;;;;4976437;28;20105;-72
2021/01/29 00:10:17;;;;;;;304.95;193.60;;;204.80;1689.60;;;;;;4976914;28;20054;-72
2021/01/29 00:12:43;;;;;;;261.65;169.77;;;180.10;1715.20;;;;;;4976709;28;20520;-71
2021/01/29 00:15:12;;;;;;;284.58;173.23;;;204.80;1689.60;;;;;;4976524;28;20105;-72
2021/01/29 00:17:39;;;;;;;301.02;182.93;;;204.90;1664.00;;;;;;4976294;28;20023;-72
2021/01/29 00:20:07;;;;;;;247.35;157.32;;;204.80;1689.60;;;;;;4976366;28;20114;-72
2021/01/29 00:22:33;;;;;;;274.70;167.88;;;204.80;1664.00;;;;;;4976726;28;20019;-72
2021/01/29 00:24:59;;;;;;;245.38;152.73;;;180.10;1689.60;;;;;;4976172;28;20034;-72
2021/01/29 00:27:24;;;;;;;236.07;147.52;;;204.80;1689.60;;;;;;4976276;28;20033;-72
2021/01/29 00:29:50;;;;;;;227.82;141.63;;;204.80;1689.60;;;;;;4976349;28;20031;-72
2021/01/29 00:32:16;;;;;;;218.20;135.90;;;180.00;1715.20;;;;;;4976361;28;20030;-71
2021/01/29 00:34:42;;;;;;;220.07;133.75;;;180.00;1740.80;;;;;;4976534;28;20027;-71
2021/01/29 00:37:07;;;;;;;202.45;127.72;;;179.90;1740.80;;;;;;4976283;28;20027;-69
2021/01/29 00:39:33;;;;;;;203.50;130.63;;;179.80;1740.80;;;;;;4976395;28;20027;-72
2021/01/29 00:41:59;;;;;;;193.82;123.82;;;180.00;1715.20;;;;;;4976273;28;20027;-71
2021/01/29 00:44:24;;;;;;;198.07;124.55;;;180.10;1715.20;;;;;;4976075;28;20038;-72
2021/01/29 00:46:50;;;;;;;198.73;124.60;;;204.80;1715.20;;;;;;4976175;28;20026;-72
2021/01/29 00:49:16;;;;;;;229.07;143.10;;;204.90;1715.20;;;;;;4976192;28;20030;-69
2021/01/29 00:51:41;;;;;;;231.55;145.18;;;179.70;1792.00;;;;;;4975922;28;20023;-72
2021/01/29 00:54:07;;;;;;;265.67;161.85;;;180.00;1740.80;;;;;;4975931;28;20381;-71
2021/01/29 00:56:33;;;;;;;286.42;175.73;;;179.90;1740.80;;;;;;4975842;28;20407;-72
2021/01/29 00:58:58;;;;;;;330.20;195.55;;;179.40;1843.20;;;;;;4975781;28;20042;-71
2021/01/29 01:01:24;;;;;;;270.92;173.07;;;179.40;1843.20;;;;;;4975693;28;20038;-71
2021/01/29 01:03:50;;;;;;;282.45;178.40;;;179.70;1792.00;;;;;;4975508;28;20106;-71
2021/01/29 01:06:15;;;;;;;289.60;180.68;;;179.70;1792.00;;;;;;4975697;28;20031;-72
2021/01/29 01:08:41;;;;;;;270.48;170.40;;;180.00;1766.40;;;;;;4975607;28;20023;-72
2021/01/29 01:11:07;;;;;;;268.02;165.90;;;179.70;1817.60;;;;;;4975631;28;20023;-72
2021/01/29 01:13:32;;;;;;;262.42;164.27;;;180.00;1792.00;;;;;;4975489;28;20462;-72
2021/01/29 01:15:58;;;;;;;265.75;167.65;;;180.10;1740.80;;;;;;4975704;28;20027;-72
2021/01/29 01:18:24;;;;;;;298.80;182.40;;;180.10;1766.40;;;;;;4975444;28;20023;-71
2021/01/29 01:20:49;;;;;;;313.35;195.02;;;205.00;1715.20;;;;;;4975596;28;20082;-71
2021/01/29 01:23:15;;;;;;;278.95;184.52;;;205.10;1715.20;;;;;;4975248;28;20469;-72
2021/01/29 01:25:41;;;;;;;287.10;184.48;;;205.10;1689.60;;;;;;4975356;28;20043;-72
2021/01/29 01:28:06;;;;;;;301.70;192.00;;;205.10;1689.60;;;;;;4975434;28;20401;-70
2021/01/29 01:30:35;;;;;;;306.30;198.00;;;205.00;1715.20;;;;;;4975190;28;20101;-71
2021/01/29 01:33:01;;;;;;;312.40;201.73;;;204.90;1740.80;;;;;;4975323;28;20389;-72
2021/01/29 01:35:27;;;;;;;298.38;192.70;;;205.00;1715.20;;;;;;4975059;28;20035;-72
2021/01/29 01:37:53;;;;;;;290.95;185.38;;;180.00;1766.40;;;;;;4975130;28;20074;-72
2021/01/29 01:40:23;;;;;;;310.30;198.13;;;179.90;1792.00;;;;;;4974976;28;20022;-71
2021/01/29 01:42:49;;;;;;;320.07;203.03;;;180.10;1766.40;;;;;;4975015;28;20027;-71
2021/01/29 01:45:27;;;;;;;306.13;188.65;;;180.10;1766.40;;;;;;4974819;28;20519;-72
2021/01/29 01:47:59;;;;;;;280.80;178.88;;;205.00;1740.80;;;;;;4974729;28;20026;-70
2021/01/29 01:50:32;;;;;;;280.50;182.05;;;204.90;1766.40;;;;;;4975049;28;20367;-71
2021/01/29 01:53:01;;;;;;;295.08;194.73;;;204.80;1792.00;;;;;;4974726;28;20161;-72
2021/01/29 01:55:36;;;;;;;281.50;184.45;;;179.90;1817.60;;;;;;4974221;28;20034;-72
2021/01/29 01:58:02;;;;;;;287.00;185.38;;;179.50;1868.80;;;;;;4974670;28;20133;-68
2021/01/29 02:00:30;;;;;;;261.65;166.93;;;180.00;1817.60;;;;;;4974526;28;20109;-71
2021/01/29 02:03:12;;;;;;;252.27;163.32;;;180.00;1817.60;;;;;;4974716;28;20027;-69
2021/01/29 02:05:40;;;;;;;182.68;118.38;;;179.40;1894.40;;;;;;4974769;28;20425;-72
2021/01/29 02:08:09;;;;;;;115.03;73.47;;;179.60;1894.40;;;;;;4974606;28;20478;-69
2021/01/29 02:10:35;;;;;;;85.15;52.40;;;154.50;1945.60;;;;;;4974274;28;20022;-71
2021/01/29 02:13:03;;;;;;;95.35;60.75;;;154.40;1971.20;;;;;;4974393;28;20034;-72
2021/01/29 02:15:32;;;;;;;112.18;72.88;;;154.20;1996.80;;;;;;4974451;28;20540;-71
2021/01/29 02:18:32;;;;;;;153.90;97.72;;;154.30;1996.80;;;;;;4974798;28;20019;-71
2021/01/29 02:21:28;;;;;;;149.30;93.05;;;179.30;1945.60;;;;;;4974320;28;20026;-69
2021/01/29 02:24:25;;;;;;;153.18;89.95;;;179.80;1894.40;;;;;;4974192;28;20022;-69
2021/01/29 02:27:17;;;;;;;138.43;86.20;;;180.10;1868.80;;;;;;4974376;28;20113;-71
2021/01/29 02:30:04;;;;;;;205.07;125.35;;;204.80;1843.20;;;;;;4974459;28;20031;-70
2021/01/29 02:33:02;;;;;;;204.23;130.65;;;204.90;1817.60;;;;;;4974335;28;20023;-69
2021/01/29 02:36:06;;;;;;;197.48;125.10;;;204.90;1792.00;;;;;;4974293;28;20019;-71
2021/01/29 02:38:45;;;;;;;274.90;170.20;;;204.90;1817.60;;;;;;4974064;28;20508;-70
2021/01/29 02:41:26;;;;;;;232.13;144.10;;;180.10;1817.60;;;;;;4974229;28;20019;-72
2021/01/29 02:44:10;;;;;;;226.70;142.25;;;179.60;1894.40;;;;;;4974082;28;20438;-69
2021/01/29 02:46:59;;;;;;;158.20;105.05;;;180.00;1868.80;;;;;;4974271;28;20030;-69
2021/01/29 02:50:04;;;;;;;110.43;67.57;;;204.80;1843.20;;;;;;4974112;28;20034;-71
2021/01/29 02:52:29;;;;;;;100.50;62.55;;;179.60;1894.40;;;;;;4972791;28;20568;-72
2021/01/29 02:55:00;;;;;;;105.35;63.88;;;179.40;1945.60;;;;;;4973860;28;20054;-69
2021/01/29 02:57:43;;;;;;;113.60;72.65;;;179.90;1868.80;;;;;;4973891;28;20086;-68
2021/01/29 03:00:24;;;;;;;122.75;77.65;;;180.10;1843.20;;;;;;4974280;28;20023;-71
2021/01/29 03:02:53;;;;;;;111.88;72.68;;;205.00;1817.60;;;;;;4973932;28;20019;-72
2021/01/29 03:05:26;;;;;;;126.15;78.70;;;204.90;1843.20;;;;;;4973855;28;20035;-72
2021/01/29 03:07:58;;;;;;;124.25;78.63;;;205.10;1817.60;;;;;;4977276;28;20027;-72
2021/01/29 03:10:42;;;;;;;123.55;78.75;;;204.90;1843.20;;;;;;4977763;28;20019;-72
2021/01/29 03:13:15;;;;;;;113.88;73.32;;;180.10;1868.80;;;;;;4977771;28;20031;-69
2021/01/29 03:15:48;;;;;;;103.10;65.55;;;179.50;1920.00;;;;;;4977735;28;20026;-71
2021/01/29 03:18:19;;;;;;;99.07;63.22;;;179.80;1894.40;;;;;;4977462;28;20031;-71
2021/01/29 03:20:56;;;;;;;116.28;75.53;;;204.80;1868.80;;;;;;4977405;28;20548;-70
2021/01/29 03:23:28;;;;;;;121.90;77.97;;;180.10;1868.80;;;;;;4977432;28;20039;-70
2021/01/29 03:26:03;;;;;;;111.32;72.18;;;179.80;1894.40;;;;;;4977522;28;20042;-69
2021/01/29 03:28:35;;;;;;;121.55;76.70;;;179.60;1920.00;;;;;;4977420;28;20109;-69
2021/01/29 03:31:03;;;;;;;110.18;71.70;;;179.50;1920.00;;;;;;4977188;28;20031;-69
2021/01/29 03:33:33;;;;;;;114.00;72.35;;;180.00;1868.80;;;;;;4977417;28;20026;-69
2021/01/29 03:36:06;;;;;;;112.38;75.45;;;180.10;1868.80;;;;;;4977265;28;20035;-68
2021/01/29 03:38:57;;;;;;;110.35;73.00;;;204.90;1817.60;;;;;;4977217;28;20042;-71
2021/01/29 03:41:34;;;;;;;93.37;58.63;;;180.10;1843.20;;;;;;4977119;28;20073;-71
2021/01/29 03:44:00;;;;;;;90.65;57.78;;;180.00;1868.80;;;;;;4977435;28;20265;-70
2021/01/29 03:47:06;;;;;;;84.68;55.05;;;204.80;1817.60;;;;;;4977247;28;20026;-69
2021/01/29 03:49:46;;;;;;;92.97;59.75;;;180.00;1868.80;;;;;;4976978;28;20030;-70
2021/01/29 03:52:39;;;;;;;100.57;64.35;;;205.00;1817.60;;;;;;4977051;28;20015;-70
2021/01/29 03:55:08;;;;;;;108.82;66.55;;;179.80;1894.40;;;;;;4976743;28;20102;-70
2021/01/29 03:57:45;;;;;;;112.38;69.40;;;179.40;1945.60;;;;;;4976772;28;20101;-71
2021/01/29 04:00:34;;;;;;;113.40;72.93;;;179.20;1996.80;;;;;;4976665;28;20027;-67
2021/01/29 04:03:41;;;;;;;112.72;73.32;;;154.50;1996.80;;;;;;4970962;28;20128;-70
2021/01/29 04:06:07;;;;;;;123.30;79.65;;;179.20;1996.80;;;;;;4976691;28;20557;-71
2021/01/29 04:08:36;;;;;;;121.53;79.57;;;179.20;1996.80;;;;;;4976568;28;20105;-70
2021/01/29 04:11:07;;;;;;;128.90;81.95;;;179.50;1971.20;;;;;;4976604;28;20027;-69
2021/01/29 04:13:39;;;;;;;120.68;76.57;;;179.60;1945.60;;;;;;4976981;28;20031;-71
2021/01/29 04:16:14;;;;;;;98.78;63.10;;;179.80;1894.40;;;;;;4976723;28;20026;-70
2021/01/29 04:18:53;;;;;;;80.45;51.72;;;180.10;1868.80;;;;;;4975874;28;20105;-70
2021/01/29 04:21:21;;;;;;;71.80;46.50;;;179.70;1920.00;;;;;;4976279;28;20027;-69
2021/01/29 04:23:54;;;;;;;78.22;50.08;;;179.80;1920.00;;;;;;4976539;28;20037;-70
2021/01/29 04:26:24;;;;;;;84.18;56.30;;;180.00;1920.00;;;;;;4976216;28;20065;-71
2021/01/29 04:28:57;;;;;;;86.20;53.55;;;204.90;1868.80;;;;;;4976221;28;20477;-70
2021/01/29 04:31:25;;;;;;;94.00;63.53;;;205.00;1843.20;;;;;;4976784;28;20062;-71
2021/01/29 04:33:59;;;;;;;89.13;56.55;;;205.10;1843.20;;;;;;4976137;28;20110;-70
2021/01/29 04:36:28;;;;;;;81.97;59.47;;;205.30;1817.60;;;;;;4976146;28;20094;-70
2021/01/29 04:39:11;;;;;;;94.43;69.63;;;205.40;1792.00;;;;;;4976411;28;20387;-70
2021/01/29 04:41:55;;;;;;;84.57;60.92;;;205.30;1843.20;;;;;;4976085;28;20030;-72
2021/01/29 04:44:38;;;;;;;92.50;63.17;;;205.40;1817.60;;;;;;4975831;28;20039;-70
2021/01/29 04:47:16;;;;;;;99.75;67.00;;;205.20;1843.20;;;;;;4976078;28;20023;-71
2021/01/29 04:50:10;;;;;;;106.50;72.18;;;180.10;1920.00;;;;;;4975979;28;20023;-72
2021/01/29 04:53:00;;;;;;;104.38;70.20;;;179.80;1971.20;;;;;;4975990;28;20029;-73
2021/01/29 04:55:44;;;;;;;93.03;59.08;;;179.70;1996.80;;;;;;4975616;28;20162;-68
2021/01/29 04:58:29;;;;;;;82.78;53.22;;;204.80;1920.00;;;;;;4975685;28;20049;-73
2021/01/29 05:01:34;;;;;;;158.32;91.25;;;204.90;1894.40;;;;;;4975766;28;20022;-72
2021/01/29 05:04:37;;;;;;;97.88;59.10;;;205.10;1868.80;;;;;;4975554;28;20029;-70
2021/01/29 05:07:33;;;;;;;97.75;65.80;;;205.20;1868.80;;;;;;4975607;28;20073;-70
2021/01/29 05:10:13;;;;;;;106.72;71.75;;;205.00;1894.40;;;;;;4975569;28;20508;-68
2021/01/29 05:13:19;;;;;;;102.72;73.35;;;205.20;1868.80;;;;;;4975439;28;20051;-70
2021/01/29 05:16:15;;;;;;;95.78;68.22;;;205.20;1868.80;;;;;;4975568;28;20022;-70
2021/01/29 05:19:20;;;;;;;101.55;69.35;;;205.20;1868.80;;;;;;4975434;28;20461;-72
2021/01/29 05:22:12;;;;;;;103.72;71.47;;;204.90;1920.00;;;;;;4934663;29;20075;-71
2021/01/29 05:24:44;;;;;;;103.22;71.28;;;179.90;1971.20;;;;;;4934549;29;20126;-71
2021/01/29 05:27:21;;;;;;;101.85;69.35;;;180.00;1945.60;;;;;;4934743;29;20071;-70
2021/01/29 05:30:08;;;;;;;113.05;80.30;;;205.20;1894.40;;;;;;4933740;29;20084;-72
2021/01/29 05:32:51;;;;;;;111.50;80.20;;;205.20;1868.80;;;;;;4934577;29;20063;-73
2021/01/29 05:35:43;;;;;;;143.73;88.72;;;205.20;1868.80;;;;;;4934611;29;20039;-72
2021/01/29 05:38:18;;;;;;;181.88;108.05;;;205.00;1894.40;;;;;;4934420;28;20139;-72
2021/01/29 05:41:11;;;;;;;150.05;91.05;;;205.20;1868.80;;;;;;4934466;29;20039;-73
2021/01/29 05:43:57;;;;;;;135.18;89.38;;;205.50;1843.20;;;;;;4934474;29;20032;-71
2021/01/29 05:46:29;;;;;;;124.25;88.75;;;205.50;1817.60;;;;;;4934691;29;20075;-72
2021/01/29 05:49:04;;;;;;;136.02;96.60;;;205.70;1817.60;;;;;;4934330;29;20027;-72
2021/01/29 05:51:51;;;;;;;150.20;101.90;;;205.70;1817.60;;;;;;4934227;29;20044;-73
2021/01/29 05:54:37;;;;;;;196.68;126.55;;;205.40;1817.60;;;;;;4934496;29;20093;-72
2021/01/29 05:57:30;;;;;;;188.65;123.63;;;205.30;1843.20;;;;;;4933947;29;20059;-72
2021/01/29 06:00:01;;;;;;;195.38;125.57;;;205.50;1817.60;;;;;;4974583;28;20061;-72
2021/01/29 06:02:52;;;;;;;177.60;115.57;;;205.60;1792.00;;;;;;4974994;28;20034;-72
2021/01/29 06:06:05;;;;;;;176.65;114.45;;;205.40;1817.60;;;;;;4976100;28;20035;-73
2021/01/29 06:08:46;;;;;;;185.27;119.50;;;180.00;1920.00;;;;;;4935024;29;20043;-74
2021/01/29 06:11:31;;;;;;;198.80;132.45;;;205.00;1894.40;;;;;;4935653;29;20031;-77
2021/01/29 06:14:13;;;;;;;242.40;154.10;;;205.30;1843.20;;;;;;4935706;29;20569;-70
2021/01/29 06:16:57;;;;;;;247.05;160.65;;;205.30;1843.20;;;;;;4935584;29;20058;-72
2021/01/29 06:19:52;;;;;;;257.17;173.98;;;205.10;1868.80;;;;;;4935813;29;20126;-72
2021/01/29 06:22:37;;;;;;;257.63;171.90;;;205.20;1843.20;;;;;;4928912;29;20539;-72
2021/01/29 06:25:41;;;;;;;273.25;183.75;;;180.00;1920.00;;;;;;4914500;29;20081;-71
2021/01/29 06:28:27;;;;;;;277.00;182.65;;;179.90;2022.40;;;;;;4896119;29;20048;-71
2021/01/29 06:31:03;;;;;;;342.52;237.48;;;204.90;1894.40;;;;;;4858700;29;20086;-72
2021/01/29 06:33:56;;;;;;;342.17;234.10;;;205.10;1868.80;;;;;;4861493;29;20445;-69
2021/01/29 06:36:31;;;;;;;361.55;247.48;;;205.30;1843.20;;;;;;4875052;29;20072;-68
2021/01/29 06:39:12;;;;;;;388.55;263.95;;;205.30;1843.20;;;;;;4876027;29;20500;-68
2021/01/29 06:42:02;;;;;;;390.15;265.67;;;205.40;1817.60;;;;;;4895001;29;20064;-70
2021/01/29 06:44:30;;;;;;;389.52;263.02;;;205.50;1817.60;;;;;;4898844;29;20043;-71
2021/01/29 06:47:14;;;;;;;393.77;260.30;;;205.40;1817.60;;;;;;4898878;29;20048;-71
2021/01/29 06:50:12;;;;;;;376.65;251.02;;;204.80;1894.40;;;;;;4898933;29;20043;-70
2021/01/29 06:52:37;;;;;;;383.75;257.52;;;180.00;1920.00;;;;;;4898729;29;20047;-69
2021/01/29 06:55:42;;;;;;;368.98;241.73;;;180.00;1945.60;;;;;;4898723;29;20648;-68
2021/01/29 06:58:29;;;;;;;368.88;239.57;;;204.90;1894.40;;;;;;4842828;29;20141;-69
2021/01/29 07:01:21;;;;;;;416.15;289.45;;;205.00;1894.40;;;;;;4842912;29;20066;-69
2021/01/29 07:04:11;;;;;;;403.70;273.38;;;205.20;1868.80;;;;;;4836573;29;20031;-69
2021/01/29 07:07:09;;;;;;;418.70;284.08;;;205.40;1817.60;;;;;;4843063;29;20065;-71
2021/01/29 07:09:55;;;;;;;397.50;268.23;;;205.60;1792.00;;;;;;4855615;29;20057;-71
2021/01/29 07:12:50;;;;;;;404.35;283.42;;;205.50;1817.60;;;;;;4855286;29;20637;-71
2021/01/29 07:15:22;;;;;;;343.30;236.05;;;205.30;1817.60;;;;;;4856878;29;20073;-70
2021/01/29 07:18:00;;;;;;;297.35;198.35;;;205.30;1843.20;;;;;;4860886;29;20552;-69
2021/01/29 07:20:25;;;;;;;232.02;156.70;;;205.10;1868.80;;;;;;4860736;29;20057;-71
2021/01/29 07:23:06;;;;;;;216.23;148.60;;;205.20;1868.80;;;;;;4860695;29;20030;-68
2021/01/29 07:25:47;;;;;;;277.20;183.60;;;205.40;1843.20;;;;;;4854285;29;20421;-68
2021/01/29 07:28:54;;;;;;;241.73;164.43;;;205.50;1817.60;;;;;;4842813;29;20049;-67
2021/01/29 07:31:41;;;;;;;272.95;180.27;;;205.10;1868.80;;;;;;4843116;29;20139;-67
2021/01/29 07:34:33;;;;;;;282.00;182.85;;;180.10;1920.00;;;;;;4932942;28;20043;-67
2021/01/29 07:37:31;;;;;;;283.05;190.85;;;180.10;1971.20;;;;;;4976901;28;20019;-68
2021/01/29 07:40:22;;;;;;;339.33;225.35;;;180.10;1971.20;;;;;;4957918;28;20054;-70
2021/01/29 07:42:50;;;;;;;337.92;229.40;;;205.10;1894.40;;;;;;4957032;29;20051;-68
2021/01/29 07:45:34;;;;;;;401.05;275.33;;;205.30;1894.40;;;;;;4957104;29;20497;-70
2021/01/29 07:48:36;;;;;;;399.60;270.00;;;230.40;1843.20;;;;;;4957167;29;20031;-69
2021/01/29 07:51:23;;;;;;;371.47;252.53;;;230.70;1766.40;;;;;;4956754;29;20024;-68
2021/01/29 07:53:58;;;;;;;339.50;233.45;;;230.90;1766.40;;;;;;4955926;28;20062;-71
2021/01/29 07:56:24;;;;;;;335.27;237.07;;;231.10;1766.40;;;;;;4949481;28;20062;-72
2021/01/29 07:59:27;;;;;;;354.38;248.50;;;256.00;1740.80;;;;;;4963474;28;20035;-69
2021/01/29 08:02:25;;;;;;;352.25;245.45;;;256.40;1689.60;;;;;;4958667;28;20461;-69
2021/01/29 08:05:14;;;;;;;331.50;236.00;;;256.50;1664.00;;;;;;4975805;28;20085;-70
2021/01/29 08:08:05;;;;;;;308.65;219.38;;;256.80;1638.40;;;;;;4935239;29;20107;-69
2021/01/29 08:10:42;;;;;;;307.70;222.88;;;281.70;1612.80;;;;;;4935069;29;20471;-72
2021/01/29 08:13:13;;;;;;;309.05;228.43;;;282.30;1587.20;;;;;;4924262;29;20033;-68
2021/01/29 08:15:55;;;;;;;274.30;203.32;;;307.20;1587.20;;;;;;4916215;29;20455;-70
2021/01/29 08:18:55;;;;;;;273.40;198.88;;;307.20;1510.40;;;;;;4916049;28;20119;-69
2021/01/29 08:21:29;;;;;;;281.00;202.55;;;281.70;1536.00;;;;;;4916156;29;20063;-66
2021/01/29 08:24:04;;;;;;;263.13;190.50;;;282.20;1510.40;;;;;;4916090;29;20028;-68
2021/01/29 08:26:35;;;;;;;277.10;200.52;;;282.50;1484.80;;;;;;4915646;29;20052;-67
2021/01/29 08:29:06;;;;;;;266.67;197.38;;;307.20;1536.00;;;;;;4933365;29;20036;-70
2021/01/29 08:31:37;;;;;;;281.00;209.48;;;307.20;1536.00;;;;;;4935337;29;20450;-69
2021/01/29 08:34:41;;;;;;;280.58;205.02;;;307.40;1536.00;;;;;;4927465;29;20514;-68
2021/01/29 08:37:25;;;;;;;274.60;196.57;;;307.50;1510.40;;;;;;4916266;29;20055;-71
2021/01/29 08:40:21;;;;;;;242.70;177.02;;;307.50;1510.40;;;;;;4916195;28;20040;-71
2021/01/29 08:42:59;;;;;;;230.63;164.52;;;307.60;1510.40;;;;;;4915701;29;20118;-70
2021/01/29 08:45:44;;;;;;;258.65;188.82;;;307.90;1459.20;;;;;;4930309;29;20052;-68
2021/01/29 08:48:21;;;;;;;243.05;171.43;;;307.90;1484.80;;;;;;4951578;29;20033;-68
2021/01/29 08:51:23;;;;;;;259.52;181.98;;;308.10;1459.20;;;;;;4953491;29;20043;-70
2021/01/29 08:54:14;;;;;;;279.05;184.43;;;332.90;1459.20;;;;;;4934614;29;20094;-71
2021/01/29 08:57:11;;;;;;;199.73;147.88;;;333.00;1433.60;;;;;;4934293;28;20043;-69
2021/01/29 08:59:39;;;;;;;210.65;151.73;;;332.90;1433.60;;;;;;4954199;29;20047;-70
2021/01/29 09:02:34;;;;;;;184.40;132.65;;;333.10;1433.60;;;;;;4954349;29;20027;-70
2021/01/29 09:05:04;;;;;;;191.18;139.27;;;333.10;1433.60;;;;;;4953841;28;20113;-69
2021/01/29 09:07:33;;;;;;;187.63;137.00;;;333.50;1408.00;;;;;;4954312;29;20086;-71
2021/01/29 09:10:20;;;;;;;186.32;133.23;;;333.70;1382.40;;;;;;4954188;29;20067;-70
2021/01/29 09:12:55;;;;;;;190.40;139.15;;;358.60;1331.20;;;;;;4964967;28;20039;-68
2021/01/29 09:15:45;;;;;;;200.90;153.57;;;358.90;1305.60;;;;;;4975240;28;20030;-68
2021/01/29 09:18:20;;;;;;;218.30;163.60;;;384.40;1254.40;;;;;;4975285;28;20034;-67
2021/01/29 09:20:59;;;;;;;185.52;146.02;;;435.50;1126.40;;;;;;4974963;28;20069;-70
2021/01/29 09:23:42;;;;;;;192.15;154.32;;;435.20;1152.00;;;;;;4974951;28;20034;-72
2021/01/29 09:26:22;;;;;;;156.30;121.63;;;486.80;998.40;;;;;;4974700;28;20038;-71
2021/01/29 09:29:02;;;;;;;129.45;98.65;;;538.50;819.20;;;;;;4974991;28;20370;-67
2021/01/29 09:31:34;;;;;;;111.13;88.78;;;589.40;742.40;;;;;;4974996;28;20038;-68
2021/01/29 09:34:17;;;;;;;;;;;614.40;691.20;;;;;;4975305;28;20054;-68
2021/01/29 09:36:50;;;;;;;144.13;110.75;;;589.70;691.20;;;;;;4975139;28;19906;-69
2021/01/29 09:39:34;;;;;;;131.60;103.88;;;615.20;665.60;;;;;;4975014;28;20542;-71
2021/01/29 09:42:05;;;;;;;126.13;101.15;;;588.90;742.40;;;;;;4974784;28;20169;-72
2021/01/29 09:44:39;;;;;;;115.30;92.70;;;589.10;768.00;;;;;;4974539;28;20027;-71
2021/01/29 09:47:06;;;;;;;112.32;88.57;;;614.90;665.60;;;;;;4974390;28;20073;-67
2021/01/29 09:49:37;;;;;;;109.97;88.88;;;640.10;640.00;;;;;;4974288;28;20102;-72
2021/01/29 09:52:30;;;;;;;114.45;93.35;;;640.00;665.60;;;;;;4974750;28;20026;-72
2021/01/29 09:55:15;;;;;;;175.25;134.68;;;640.40;640.00;;;;;;4974515;28;20023;-69
2021/01/29 09:58:21;;;;;;;125.07;97.18;;;665.70;614.40;;;;;;4974276;28;20059;-72
2021/01/29 10:01:01;;;;;;;128.60;105.10;;;665.60;691.20;;;;;;4974752;28;20122;-70
2021/01/29 10:04:01;;;;;;;124.70;102.35;;;615.00;691.20;;;;;;4974533;28;20566;-69
2021/01/29 10:06:32;;;;;;;132.40;111.65;;;;;;;;;;4974608;28;20588;-73
2021/01/29 10:09:14;;;;;;;136.77;113.20;;;717.20;537.60;;;;;;4974515;28;20065;-73
2021/01/29 10:11:47;;;;;;;139.02;114.80;;;717.70;537.60;;;;;;4974271;28;20508;-73
2021/01/29 10:14:20;;;;;;;134.10;114.82;;;742.70;537.60;;;;;;4973843;28;20054;-72
2021/01/29 10:16:57;;;;;;;193.80;152.00;;;717.50;537.60;;;;;;4973762;28;20030;-75
2021/01/29 10:19:26;;;;;;;142.13;118.55;;;742.60;537.60;;;;;;4974397;28;20030;-71
2021/01/29 10:21:58;;;;;;;124.78;104.57;;;717.40;588.80;;;;;;4974223;28;20449;-71
2021/01/29 10:24:38;;;;;;;105.47;87.63;;;716.80;588.80;;;;;;4974086;28;20057;-73
2021/01/29 10:27:34;;;;;;;84.35;68.82;;;692.10;537.60;;;;;;4974262;28;20436;-71
2021/01/29 10:30:21;;;;;;;102.47;77.82;;;691.60;537.60;;;;;;4974195;28;20370;-71
2021/01/29 10:33:10;;;;;;;32.83;26.52;;;691.60;537.60;;;;;;4974192;28;20074;-73
2021/01/29 10:35:44;;;;;;;32.20;26.02;;;666.50;537.60;;;;;;4974335;28;20067;-73
2021/01/29 10:38:26;;;;;;;23.08;17.73;;;640.90;537.60;;;;;;4974104;28;20023;-71
2021/01/29 10:41:25;;;;;;;16.35;12.15;;;640.20;563.20;;;;;;4974235;28;20063;-69
2021/01/29 10:44:09;;;;;;;18.15;11.77;;;589.60;614.40;;;;;;4974013;28;20113;-69
2021/01/29 10:46:58;;;;;;;15.88;11.13;;;588.80;665.60;;;;;;4956629;28;20441;-68
2021/01/29 10:49:45;;;;;;;17.02;12.15;;;563.70;665.60;;;;;;4974072;28;20034;-69
2021/01/29 10:52:24;;;;;;;20.75;15.38;;;538.20;716.80;;;;;;4973935;28;20481;-69
2021/01/29 10:54:50;;;;;;;15.00;10.88;;;538.00;716.80;;;;;;4973912;28;20045;-74
2021/01/29 10:57:44;;;;;;;11.10;8.55;;;537.60;716.80;;;;;;4973379;28;20516;-75
2021/01/29 11:00:23;;;;;;;18.90;13.32;;;537.70;716.80;;;;;;4973392;28;20494;-74
2021/01/29 11:03:05;;;;;;;11.85;9.13;;;512.40;742.40;;;;;;4973857;28;20027;-74
2021/01/29 11:05:34;;;;;;;18.55;12.88;;;512.40;716.80;;;;;;4973882;28;20082;-75
2021/01/29 11:08:27;;;;;;;17.67;11.27;;;512.10;742.40;;;;;;4973973;28;20365;-73
2021/01/29 11:11:21;;;;;;;15.80;10.35;;;512.20;742.40;;;;;;4973794;28;20552;-73
2021/01/29 11:14:05;;;;;;;15.57;10.85;;;487.30;768.00;;;;;;4973679;28;20065;-74
2021/01/29 11:16:59;;;;;;;11.40;8.52;;;487.00;793.60;;;;;;4973894;28;20484;-73
2021/01/29 11:19:41;;;;;;;28.70;18.40;;;486.80;793.60;;;;;;4973688;28;20592;-74
2021/01/29 11:22:22;;;;;;;64.00;45.30;;;486.80;819.20;;;;;;4973630;28;20030;-74
2021/01/29 11:25:23;;;;;;;18.13;12.83;;;487.00;793.60;;;;;;4973386;28;20039;-74
2021/01/29 11:28:13;;;;;;;29.13;19.45;;;486.80;793.60;;;;;;4974727;28;20046;-74
2021/01/29 11:31:03;;;;;;;16.10;11.70;;;486.70;793.60;;;;;;4977238;28;20081;-74
2021/01/29 11:33:33;;;;;;;15.32;10.35;;;486.70;793.60;;;;;;4977419;28;20500;-72
2021/01/29 11:36:04;;;;;;;28.07;20.43;;;486.70;793.60;;;;;;4977118;28;20105;-73
2021/01/29 11:38:59;;;;;;;22.75;17.92;;;486.70;793.60;;;;;;4977358;28;20018;-74
2021/01/29 11:41:24;;;;;;;20.38;13.90;;;486.70;793.60;;;;;;4977230;28;20034;-73
2021/01/29 11:44:13;;;;;;;17.60;11.40;;;486.50;819.20;;;;;;4977079;28;20122;-72
2021/01/29 11:47:10;;;;;;;14.77;9.77;;;487.00;793.60;;;;;;4976657;28;20043;-72
2021/01/29 11:49:49;;;;;;;19.88;13.32;;;486.50;819.20;;;;;;4976889;28;20042;-72
2021/01/29 11:52:33;;;;;;;30.00;17.95;;;461.50;844.80;;;;;;4976937;28;20074;-69
2021/01/29 11:55:05;;;;;;;16.13;11.82;;;461.30;844.80;;;;;;4976735;28;20034;-69
2021/01/29 11:58:08;;;;;;;16.08;10.75;;;461.30;844.80;;;;;;4976284;28;20054;-69
2021/01/29 12:00:49;;;;;;;90.18;56.40;;;461.10;870.40;;;;;;4976757;28;20058;-70
2021/01/29 12:03:33;;;;;;;19.02;13.07;;;461.40;870.40;;;;;;4976651;28;20019;-70
2021/01/29 12:06:05;;;;;;;13.52;9.20;;;461.20;870.40;;;;;;4976554;28;20034;-70
2021/01/29 12:08:35;;;;;;;;;;;461.50;819.20;;;;;;4977156;28;20023;-70
2021/01/29 12:11:12;;;;;;;14.82;9.88;;;461.10;844.80;;;;;;4976861;28;19906;-70
2021/01/29 12:13:40;;;;;;;125.78;75.20;;;461.10;870.40;;;;;;4976452;28;20030;-70
2021/01/29 12:16:17;;;;;;;20.27;11.70;;;461.20;870.40;;;;;;4976350;28;20054;-69
2021/01/29 12:18:48;;;;;;;31.45;20.05;;;461.30;896.00;;;;;;4976753;28;20019;-69
2021/01/29 12:21:29;;;;;;;10.95;7.15;;;461.10;870.40;;;;;;4976447;28;20102;-69
2021/01/29 12:24:06;;;;;;;;;;;461.30;870.40;;;;;;4959411;28;20070;-69
2021/01/29 12:26:48;;;;;;;20.75;13.75;;;461.30;870.40;;;;;;4958518;28;19918;-69
2021/01/29 12:29:54;;;;;;;21.55;13.25;;;461.50;870.40;;;;;;4958447;28;20543;-69
2021/01/29 12:32:24;;;;;;;38.90;23.08;;;461.20;896.00;;;;;;4976103;28;20445;-69
2021/01/29 12:35:06;;;;;;;26.23;18.77;;;461.00;896.00;;;;;;4958690;28;20414;-69
2021/01/29 12:37:38;;;;;;;18.55;13.68;;;460.90;896.00;;;;;;4976040;28;20053;-70
2021/01/29 12:40:14;;;;;;;28.30;16.33;;;460.90;896.00;;;;;;4975409;28;20465;-69
2021/01/29 12:42:54;;;;;;;50.97;32.58;;;436.10;896.00;;;;;;4975843;28;20058;-69
2021/01/29 12:45:48;;;;;;;29.70;19.50;;;436.10;921.60;;;;;;4976063;28;20066;-69
2021/01/29 12:48:23;;;;;;;51.70;30.20;;;436.10;921.60;;;;;;4975957;28;20027;-70
2021/01/29 12:50:56;;;;;;;30.83;19.90;;;435.90;921.60;;;;;;4975881;28;20098;-70